G. M. Dannevig — LINW — position and weather

sailwx.info

Track history (hours):
 
Tides and Currents Weather Stations Pressure Air Temp Water Temp Dewpoint Dewpoint Depression Visibility Wind Speed Wind Dir Waves Ship Positions

Oceanographic research ship G. M. Dannevig (Norway)

Detailed information on ship capabilities available from University of Delaware's Ocean Information Center.

Last reported at 2018-Jan-22 01:28 UTC. Time now 2018-Jan-22 21:53 UTC.
Position N 57°36' E 009°57'.

Length 27 m; draft 0.35 m.

Type: Dredging. MMSI: 258513000.

Date/timePositionNaut miles runAvg speedWind from/ knotsBaromVisibWave heightAir tempDewpointWater temp
2018-Jan-22 01:28N 57°36' E 009°57'0 0.0
2018-Jan-22 01:00N 57°36' E 009°57'0 0.0
2018-Jan-22 00:30N 57°36' E 009°57'0 0.0
2018-Jan-21 23:59N 57°36' E 009°57'0 0.0
2018-Jan-21 23:29N 57°36' E 009°57'0 0.0
2018-Jan-21 23:00N 57°36' E 009°57'0 0.0
2018-Jan-21 22:29N 57°36' E 009°57'0 0.0
2018-Jan-21 21:59N 57°36' E 009°57'41 3.4
2018-Jan-21 09:59N 58°08' E 009°11'4 8.4
2018-Jan-21 09:30N 58°11' E 009°06'2 4.2
2018-Jan-21 09:00N 58°13' E 009°04'4 7.8
2018-Jan-21 08:30N 58°16' E 008°59'3 5.2
2018-Jan-21 08:00N 58°18' E 008°56'3 5.3
2018-Jan-21 07:31N 58°20' E 008°53'3 6.6
2018-Jan-21 07:01N 58°23' E 008°50'2 4.6
2018-Jan-21 06:30N 58°24' E 008°46'2 0.1
2018-Jan-20 13:32N 58°25' E 008°45'0 6.6
2018-Jan-20 13:30N 58°25' E 008°46'42 9.1
2018-Jan-20 08:54N 58°52' E 009°48'511.7
2018-Jan-20 08:28N 58°55' E 009°56'510.2
2018-Jan-20 08:00N 58°58' E 010°03'3 5.7
2018-Jan-20 07:30N 59°01' E 010°04'2 4.7
2018-Jan-20 07:00N 59°03' E 010°02'0 0.5
2018-Jan-20 06:29N 59°03' E 010°02'0 0.0
2018-Jan-20 05:59N 59°03' E 010°02'0 0.0
2018-Jan-20 05:28N 59°03' E 010°02'0 0.0
2018-Jan-20 04:59N 59°03' E 010°02'0 0.0
2018-Jan-20 04:29N 59°03' E 010°02'0 0.0
2018-Jan-20 03:59N 59°03' E 010°02'0 0.0
2018-Jan-20 03:29N 59°03' E 010°02'0 0.0
2018-Jan-20 02:57N 59°03' E 010°02'0 0.0
2018-Jan-20 02:30N 59°03' E 010°02'0 0.0
2018-Jan-20 01:58N 59°03' E 010°02'0 0.0
2018-Jan-20 01:27N 59°03' E 010°02'0 0.0
2018-Jan-20 00:59N 59°03' E 010°02'0 0.0
2018-Jan-20 00:28N 59°03' E 010°02'0 0.0
2018-Jan-19 23:56N 59°03' E 010°02'0 0.0
2018-Jan-19 23:27N 59°03' E 010°02'0 0.0
2018-Jan-19 22:47N 59°03' E 010°02'0 0.0
2018-Jan-19 22:28N 59°03' E 010°02'0 0.0
2018-Jan-19 22:00N 59°03' E 010°02'0 0.0
2018-Jan-19 21:25N 59°03' E 010°02'0 0.0
2018-Jan-19 20:59N 59°03' E 010°02'0 0.0
2018-Jan-19 20:30N 59°03' E 010°02'0 0.0
2018-Jan-19 20:00N 59°03' E 010°02'0 0.0
2018-Jan-19 19:28N 59°03' E 010°02'0 0.0
2018-Jan-19 19:00N 59°03' E 010°02'0 0.0
2018-Jan-19 18:29N 59°03' E 010°02'0 0.0
2018-Jan-19 17:58N 59°03' E 010°02'0 0.0
2018-Jan-19 17:29N 59°03' E 010°02'0 0.0
2018-Jan-19 17:00N 59°03' E 010°02'0 0.0
2018-Jan-19 16:27N 59°03' E 010°02'2 3.6
2018-Jan-19 16:00N 59°02' E 010°03'4 8.6
2018-Jan-19 15:30N 58°60' E 010°11'4 9.0
2018-Jan-19 15:00N 59°00' E 010°19'4 8.6
2018-Jan-19 14:30N 59°02' E 010°27'5 9.3
2018-Jan-19 14:00N 59°06' E 010°31'5 9.4
2018-Jan-19 13:30N 59°11' E 010°33'4 7.8
2018-Jan-19 13:00N 59°14' E 010°32'5 9.7
2018-Jan-19 12:30N 59°19' E 010°35'3 6.7
2018-Jan-19 12:00N 59°22' E 010°36'4 8.4
2018-Jan-19 11:30N 59°26' E 010°32'4 7.8
2018-Jan-19 11:00N 59°29' E 010°28'4 8.4
2018-Jan-19 10:30N 59°33' E 010°24'3 7.0
2018-Jan-19 10:01N 59°37' E 010°25'4 8.0
2018-Jan-19 09:30N 59°33' E 010°24'4 7.3
2018-Jan-19 09:00N 59°31' E 010°31'5 9.2
2018-Jan-19 08:30N 59°34' E 010°37'1 2.0
2018-Jan-19 08:00N 59°34' E 010°39'4 9.0
2018-Jan-19 07:30N 59°29' E 010°41'3 5.5
2018-Jan-19 07:00N 59°27' E 010°40'1 1.1
2018-Jan-19 06:30N 59°26' E 010°39'0 0.0
2018-Jan-19 06:00N 59°26' E 010°39'0 0.0
2018-Jan-19 05:30N 59°26' E 010°39'0 0.0
2018-Jan-19 05:00N 59°26' E 010°39'0 0.0
2018-Jan-19 04:30N 59°26' E 010°39'0 0.0
2018-Jan-19 04:00N 59°26' E 010°39'0 0.0
2018-Jan-19 03:30N 59°26' E 010°39'0 0.0
2018-Jan-19 03:00N 59°26' E 010°39'0 0.0
2018-Jan-19 02:30N 59°26' E 010°39'0 0.0
2018-Jan-19 02:00N 59°26' E 010°39'0 0.0
2018-Jan-19 01:30N 59°26' E 010°39'0 0.0
2018-Jan-19 01:00N 59°26' E 010°39'0 0.0
2018-Jan-19 00:30N 59°26' E 010°39'0 0.0
2018-Jan-19 00:00N 59°26' E 010°39'0 0.0
2018-Jan-18 23:30N 59°26' E 010°39'0 0.0
2018-Jan-18 22:59N 59°26' E 010°39'0 0.0
2018-Jan-18 22:30N 59°26' E 010°39'0 0.0
2018-Jan-18 22:00N 59°26' E 010°39'0 0.0
2018-Jan-18 21:30N 59°26' E 010°39'0 0.0
2018-Jan-18 21:00N 59°26' E 010°39'0 0.0
2018-Jan-18 20:30N 59°26' E 010°39'0 0.0
2018-Jan-18 20:00N 59°26' E 010°39'0 0.0
2018-Jan-18 19:29N 59°26' E 010°39'0 0.0
2018-Jan-18 19:00N 59°26' E 010°39'0 0.0
2018-Jan-18 18:30N 59°26' E 010°39'0 0.0
2018-Jan-18 18:00N 59°26' E 010°39'2 4.6
2018-Jan-18 17:30N 59°28' E 010°40'3 6.4
2018-Jan-18 17:00N 59°31' E 010°37'4 8.9
2018-Jan-18 16:30N 59°26' E 010°35'5 9.0
2018-Jan-18 16:00N 59°22' E 010°37'5 9.2
2018-Jan-18 15:30N 59°18' E 010°41'4 7.2
2018-Jan-18 15:00N 59°14' E 010°43'3 6.9
2018-Jan-18 14:31N 59°11' E 010°41'0 0.4
2018-Jan-18 14:00N 59°11' E 010°41'4 8.3
2018-Jan-18 13:30N 59°08' E 010°48'3 6.0
2018-Jan-18 13:00N 59°06' E 010°49'5 9.3
2018-Jan-18 12:30N 59°02' E 010°54'4 7.4
2018-Jan-18 12:00N 59°05' E 010°59'3 5.8
2018-Jan-18 11:30N 59°06' E 011°04'3 6.5
2018-Jan-18 11:00N 59°07' E 011°10'3 5.4
2018-Jan-18 10:30N 59°05' E 011°14'3 6.9
2018-Jan-18 10:00N 59°07' E 011°21'1 1.3
2018-Jan-18 09:29N 59°07' E 011°19'4 7.9
2018-Jan-18 09:00N 59°05' E 011°12'4 8.6
2018-Jan-18 08:30N 59°03' E 011°05'4 7.8
2018-Jan-18 08:00N 59°01' E 010°59'4 8.6
2018-Jan-18 07:30N 59°03' E 010°51'2 3.1
2018-Jan-18 06:56N 59°05' E 010°52'0 0.0
2018-Jan-18 06:30N 59°05' E 010°52'0 0.0
2018-Jan-18 05:59N 59°05' E 010°52'0 0.0
2018-Jan-18 05:30N 59°05' E 010°52'0 0.0
2018-Jan-18 05:00N 59°05' E 010°52'0 0.0
2018-Jan-18 04:30N 59°05' E 010°52'0 0.0
2018-Jan-18 04:00N 59°05' E 010°52'0 0.0
2018-Jan-18 03:30N 59°05' E 010°52'0 0.0
2018-Jan-18 03:00N 59°05' E 010°52'0 0.0
2018-Jan-18 02:30N 59°05' E 010°52'0 0.0
2018-Jan-18 01:59N 59°05' E 010°52'0 0.0
2018-Jan-18 01:30N 59°05' E 010°52'0 0.0
2018-Jan-18 01:00N 59°05' E 010°52'0 0.0
2018-Jan-18 00:00N 59°05' E 010°52'0 0.1
2018-Jan-17 23:57N 59°05' E 010°52'  
Track history (hours):
 
Tides and Currents Weather Stations Pressure Air Temp Water Temp Dewpoint Dewpoint Depression Visibility Wind Speed Wind Dir Waves Ship Positions

Oceanographic research ship G. M. Dannevig (Norway)

Detailed information on ship capabilities available from University of Delaware's Ocean Information Center.

Last reported at 2018-Jan-22 01:28 UTC. Time now 2018-Jan-22 21:53 UTC.
Position N 57°36' E 009°57'.

Length 27 m; draft 0.35 m.

Type: Dredging. MMSI: 258513000.

Date/timePositionNaut miles runAvg speedWind from/ knotsBaromVisibWave heightAir tempDewpointWater temp
2018-Jan-22 01:28N 57°36' E 009°57'0 0.0
2018-Jan-22 01:00N 57°36' E 009°57'0 0.0
2018-Jan-22 00:30N 57°36' E 009°57'0 0.0
2018-Jan-21 23:59N 57°36' E 009°57'0 0.0
2018-Jan-21 23:29N 57°36' E 009°57'0 0.0
2018-Jan-21 23:00N 57°36' E 009°57'0 0.0
2018-Jan-21 22:29N 57°36' E 009°57'0 0.0
2018-Jan-21 21:59N 57°36' E 009°57'41 3.4
2018-Jan-21 09:59N 58°08' E 009°11'4 8.4
2018-Jan-21 09:30N 58°11' E 009°06'2 4.2
2018-Jan-21 09:00N 58°13' E 009°04'4 7.8
2018-Jan-21 08:30N 58°16' E 008°59'3 5.2
2018-Jan-21 08:00N 58°18' E 008°56'3 5.3
2018-Jan-21 07:31N 58°20' E 008°53'3 6.6
2018-Jan-21 07:01N 58°23' E 008°50'2 4.6
2018-Jan-21 06:30N 58°24' E 008°46'2 0.1
2018-Jan-20 13:32N 58°25' E 008°45'0 6.6
2018-Jan-20 13:30N 58°25' E 008°46'42 9.1
2018-Jan-20 08:54N 58°52' E 009°48'511.7
2018-Jan-20 08:28N 58°55' E 009°56'510.2
2018-Jan-20 08:00N 58°58' E 010°03'3 5.7
2018-Jan-20 07:30N 59°01' E 010°04'2 4.7
2018-Jan-20 07:00N 59°03' E 010°02'0 0.5
2018-Jan-20 06:29N 59°03' E 010°02'0 0.0
2018-Jan-20 05:59N 59°03' E 010°02'0 0.0
2018-Jan-20 05:28N 59°03' E 010°02'0 0.0
2018-Jan-20 04:59N 59°03' E 010°02'0 0.0
2018-Jan-20 04:29N 59°03' E 010°02'0 0.0
2018-Jan-20 03:59N 59°03' E 010°02'0 0.0
2018-Jan-20 03:29N 59°03' E 010°02'0 0.0
2018-Jan-20 02:57N 59°03' E 010°02'0 0.0
2018-Jan-20 02:30N 59°03' E 010°02'0 0.0
2018-Jan-20 01:58N 59°03' E 010°02'0 0.0
2018-Jan-20 01:27N 59°03' E 010°02'0 0.0
2018-Jan-20 00:59N 59°03' E 010°02'0 0.0
2018-Jan-20 00:28N 59°03' E 010°02'0 0.0
2018-Jan-19 23:56N 59°03' E 010°02'0 0.0
2018-Jan-19 23:27N 59°03' E 010°02'0 0.0
2018-Jan-19 22:47N 59°03' E 010°02'0 0.0
2018-Jan-19 22:28N 59°03' E 010°02'0 0.0
2018-Jan-19 22:00N 59°03' E 010°02'0 0.0
2018-Jan-19 21:25N 59°03' E 010°02'0 0.0
2018-Jan-19 20:59N 59°03' E 010°02'0 0.0
2018-Jan-19 20:30N 59°03' E 010°02'0 0.0
2018-Jan-19 20:00N 59°03' E 010°02'0 0.0
2018-Jan-19 19:28N 59°03' E 010°02'0 0.0
2018-Jan-19 19:00N 59°03' E 010°02'0 0.0
2018-Jan-19 18:29N 59°03' E 010°02'0 0.0
2018-Jan-19 17:58N 59°03' E 010°02'0 0.0
2018-Jan-19 17:29N 59°03' E 010°02'0 0.0
2018-Jan-19 17:00N 59°03' E 010°02'0 0.0
2018-Jan-19 16:27N 59°03' E 010°02'2 3.6
2018-Jan-19 16:00N 59°02' E 010°03'4 8.6
2018-Jan-19 15:30N 58°60' E 010°11'4 9.0
2018-Jan-19 15:00N 59°00' E 010°19'4 8.6
2018-Jan-19 14:30N 59°02' E 010°27'5 9.3
2018-Jan-19 14:00N 59°06' E 010°31'5 9.4
2018-Jan-19 13:30N 59°11' E 010°33'4 7.8
2018-Jan-19 13:00N 59°14' E 010°32'5 9.7
2018-Jan-19 12:30N 59°19' E 010°35'3 6.7
2018-Jan-19 12:00N 59°22' E 010°36'4 8.4
2018-Jan-19 11:30N 59°26' E 010°32'4 7.8
2018-Jan-19 11:00N 59°29' E 010°28'4 8.4
2018-Jan-19 10:30N 59°33' E 010°24'3 7.0
2018-Jan-19 10:01N 59°37' E 010°25'4 8.0
2018-Jan-19 09:30N 59°33' E 010°24'4 7.3
2018-Jan-19 09:00N 59°31' E 010°31'5 9.2
2018-Jan-19 08:30N 59°34' E 010°37'1 2.0
2018-Jan-19 08:00N 59°34' E 010°39'4 9.0
2018-Jan-19 07:30N 59°29' E 010°41'3 5.5
2018-Jan-19 07:00N 59°27' E 010°40'1 1.1
2018-Jan-19 06:30N 59°26' E 010°39'0 0.0
2018-Jan-19 06:00N 59°26' E 010°39'0 0.0
2018-Jan-19 05:30N 59°26' E 010°39'0 0.0
2018-Jan-19 05:00N 59°26' E 010°39'0 0.0
2018-Jan-19 04:30N 59°26' E 010°39'0 0.0
2018-Jan-19 04:00N 59°26' E 010°39'0 0.0
2018-Jan-19 03:30N 59°26' E 010°39'0 0.0
2018-Jan-19 03:00N 59°26' E 010°39'0 0.0
2018-Jan-19 02:30N 59°26' E 010°39'0 0.0
2018-Jan-19 02:00N 59°26' E 010°39'0 0.0
2018-Jan-19 01:30N 59°26' E 010°39'0 0.0
2018-Jan-19 01:00N 59°26' E 010°39'0 0.0
2018-Jan-19 00:30N 59°26' E 010°39'0 0.0
2018-Jan-19 00:00N 59°26' E 010°39'0 0.0
2018-Jan-18 23:30N 59°26' E 010°39'0 0.0
2018-Jan-18 22:59N 59°26' E 010°39'0 0.0
2018-Jan-18 22:30N 59°26' E 010°39'0 0.0
2018-Jan-18 22:00N 59°26' E 010°39'0 0.0
2018-Jan-18 21:30N 59°26' E 010°39'0 0.0
2018-Jan-18 21:00N 59°26' E 010°39'0 0.0
2018-Jan-18 20:30N 59°26' E 010°39'0 0.0
2018-Jan-18 20:00N 59°26' E 010°39'0 0.0
2018-Jan-18 19:29N 59°26' E 010°39'0 0.0
2018-Jan-18 19:00N 59°26' E 010°39'0 0.0
2018-Jan-18 18:30N 59°26' E 010°39'0 0.0
2018-Jan-18 18:00N 59°26' E 010°39'2 4.6
2018-Jan-18 17:30N 59°28' E 010°40'3 6.4
2018-Jan-18 17:00N 59°31' E 010°37'4 8.9
2018-Jan-18 16:30N 59°26' E 010°35'5 9.0
2018-Jan-18 16:00N 59°22' E 010°37'5 9.2
2018-Jan-18 15:30N 59°18' E 010°41'4 7.2
2018-Jan-18 15:00N 59°14' E 010°43'3 6.9
2018-Jan-18 14:31N 59°11' E 010°41'0 0.4
2018-Jan-18 14:00N 59°11' E 010°41'4 8.3
2018-Jan-18 13:30N 59°08' E 010°48'3 6.0
2018-Jan-18 13:00N 59°06' E 010°49'5 9.3
2018-Jan-18 12:30N 59°02' E 010°54'4 7.4
2018-Jan-18 12:00N 59°05' E 010°59'3 5.8
2018-Jan-18 11:30N 59°06' E 011°04'3 6.5
2018-Jan-18 11:00N 59°07' E 011°10'3 5.4
2018-Jan-18 10:30N 59°05' E 011°14'3 6.9
2018-Jan-18 10:00N 59°07' E 011°21'1 1.3
2018-Jan-18 09:29N 59°07' E 011°19'4 7.9
2018-Jan-18 09:00N 59°05' E 011°12'4 8.6
2018-Jan-18 08:30N 59°03' E 011°05'4 7.8
2018-Jan-18 08:00N 59°01' E 010°59'4 8.6
2018-Jan-18 07:30N 59°03' E 010°51'2 3.1
2018-Jan-18 06:56N 59°05' E 010°52'0 0.0
2018-Jan-18 06:30N 59°05' E 010°52'0 0.0
2018-Jan-18 05:59N 59°05' E 010°52'0 0.0
2018-Jan-18 05:30N 59°05' E 010°52'0 0.0
2018-Jan-18 05:00N 59°05' E 010°52'0 0.0
2018-Jan-18 04:30N 59°05' E 010°52'0 0.0
2018-Jan-18 04:00N 59°05' E 010°52'0 0.0
2018-Jan-18 03:30N 59°05' E 010°52'0 0.0
2018-Jan-18 03:00N 59°05' E 010°52'0 0.0
2018-Jan-18 02:30N 59°05' E 010°52'0 0.0
2018-Jan-18 01:59N 59°05' E 010°52'0 0.0
2018-Jan-18 01:30N 59°05' E 010°52'0 0.0
2018-Jan-18 01:00N 59°05' E 010°52'0 0.0
2018-Jan-18 00:00N 59°05' E 010°52'0 0.1
2018-Jan-17 23:57N 59°05' E 010°52'  

Dump ship's entire track history